Torquay, Canada
Current Conditions -  °F | °C
As of 1:55 PM on Tuesday 21 Oct 2014 (Local Time) from KD50 Reporting Station
Clear Clear  
Wind Chill: 73°   Ceiling: Unl
Heat Index: 73°   Visibility: 10mi
Dew Point: 41°   Wind: 10mph
Humidity: 31%   Direction: 130°SE
Pressure: 29.61"   Gusts: 17mph
Location:  49.14°N, 103.5°W
Report Text: KD50 211955Z AUTO 13009G15KT 10SM CLR 23/05 A2961 RMK AO2
Loading
Personal Weather Stations






























Interactive Weather Map
Tropical Storm Tracking
New forecast layout! Learn more

10-Day Weather Forecast

Advertisements
Track Severe Weather on mobile